Time;durP1;ratioP1;P1;durP2;ratioP2;P2;SDS_P1;SDS_P2;PMS_P1;PMS_P2;Temp;Humidity;BMP_temperature;BMP_pressure;BME280_temperature;BME280_humidity;BME280_pressure;Samples;Min_cycle;Max_cycle;Signal;HPM_P1;HPM_P2
2022/11/17 00:02:05;;;;;;;27.02;14.18;;;6.20;99.90;;;;;;6278182;22;20028;-87
2022/11/17 00:04:53;;;;;;;26.98;13.68;;;6.10;99.90;;;;;;6257458;22;20039;-87
2022/11/17 00:07:42;;;;;;;21.77;14.18;;;6.00;99.90;;;;;;6278285;22;20028;-86
2022/11/17 00:10:30;;;;;;;23.10;13.60;;;5.90;99.90;;;;;;6279382;22;20095;-86
2022/11/17 00:16:23;;;;;;;26.50;13.48;;;5.70;99.90;;;;;;6277304;22;20028;-86
2022/11/17 00:22:19;;;;;;;26.23;13.35;;;5.70;99.90;;;;;;6280174;22;20337;-86
2022/11/17 00:25:06;;;;;;;22.45;11.70;;;5.70;99.90;;;;;;6281076;22;20024;-87
2022/11/17 00:27:56;;;;;;;22.77;12.38;;;5.80;99.90;;;;;;6257438;22;20023;-86
2022/11/17 00:34:05;;;;;;;16.33;9.40;;;6.00;99.90;;;;;;6287391;22;20062;-86
2022/11/17 00:36:54;;;;;;;14.98;10.63;;;6.10;99.90;;;;;;6272148;22;20027;-88
2022/11/17 00:39:41;;;;;;;14.18;9.05;;;6.20;99.90;;;;;;6256914;22;20055;-88
2022/11/17 00:42:28;;;;;;;15.68;9.95;;;6.30;99.90;;;;;;6278789;22;20024;-87
2022/11/17 00:45:15;;;;;;;17.63;8.65;;;6.30;99.90;;;;;;6256358;22;20105;-87
2022/11/17 00:48:03;;;;;;;14.57;8.68;;;6.50;99.90;;;;;;6277691;22;20027;-86
2022/11/17 00:50:50;;;;;;;16.90;8.90;;;6.50;99.90;;;;;;6279699;22;20127;-88
2022/11/17 00:53:37;;;;;;;15.05;9.93;;;6.50;99.90;;;;;;6255842;22;20081;-87
2022/11/17 00:56:25;;;;;;;15.95;10.38;;;6.50;99.90;;;;;;6279277;22;20023;-88
2022/11/17 00:59:15;;;;;;;16.17;9.18;;;6.40;99.90;;;;;;6278713;22;20033;-87
2022/11/17 01:02:03;;;;;;;14.10;8.88;;;6.40;99.90;;;;;;6258049;22;20035;-88
2022/11/17 01:04:53;;;;;;;15.35;9.00;;;6.40;99.90;;;;;;6278169;22;20084;-87
2022/11/17 01:07:40;;;;;;;15.02;9.05;;;6.40;99.90;;;;;;6275067;22;20105;-86
2022/11/17 01:10:29;;;;;;;14.32;8.45;;;6.40;99.90;;;;;;6279666;22;20430;-86
2022/11/17 01:13:17;;;;;;;16.63;8.80;;;6.50;99.90;;;;;;6258187;22;20099;-86
2022/11/17 01:16:15;;;;;;;18.38;9.85;;;6.50;99.90;;;;;;6279245;22;20134;-86
2022/11/17 01:19:02;;;;;;;12.40;7.78;;;6.30;99.90;;;;;;6252760;22;20338;-87
2022/11/17 01:21:50;;;;;;;15.40;8.07;;;6.30;99.90;;;;;;6276974;22;20027;-87
2022/11/17 01:24:37;;;;;;;17.10;9.43;;;6.30;99.90;;;;;;6254119;22;20027;-86
2022/11/17 01:27:26;;;;;;;10.68;7.45;;;6.30;99.90;;;;;;6277021;22;20031;-86
2022/11/17 01:30:17;;;;;;;10.30;7.63;;;6.30;99.90;;;;;;6255203;22;20356;-87
2022/11/17 01:33:04;;;;;;;14.13;7.80;;;6.40;99.90;;;;;;6255548;22;20279;-88
2022/11/17 01:35:51;;;;;;;14.18;8.63;;;6.40;99.90;;;;;;6256115;22;20089;-87
2022/11/17 01:38:38;;;;;;;17.25;7.30;;;6.40;99.90;;;;;;6279280;22;20023;-87
2022/11/17 01:41:27;;;;;;;15.35;6.95;;;6.50;99.90;;;;;;6276687;22;20127;-88
2022/11/17 01:44:54;;;;;;;16.13;7.28;;;6.50;99.90;;;;;;6278091;22;20043;-87
2022/11/17 01:47:47;;;;;;;13.30;6.22;;;6.60;99.90;;;;;;6237008;22;20487;-87
2022/11/17 01:50:37;;;;;;;11.15;6.05;;;6.70;99.90;;;;;;6259547;22;20046;-87
2022/11/17 01:53:29;;;;;;;10.05;5.30;;;6.80;99.90;;;;;;6256174;22;20441;-86
2022/11/17 01:56:26;;;;;;;7.17;4.03;;;6.90;99.90;;;;;;6277269;22;20030;-87
2022/11/17 01:59:24;;;;;;;6.80;4.97;;;7.00;99.90;;;;;;6278797;22;20028;-88
2022/11/17 02:02:11;;;;;;;18.42;8.38;;;7.00;99.90;;;;;;6278149;22;20094;-88
2022/11/17 02:05:16;;;;;;;13.45;7.63;;;6.90;99.90;;;;;;6278947;22;20023;-88
2022/11/17 02:08:07;;;;;;;12.68;6.72;;;6.60;99.90;;;;;;6277159;22;20028;-88
2022/11/17 02:10:54;;;;;;;11.35;6.18;;;6.60;99.90;;;;;;6256837;22;20340;-87
2022/11/17 02:13:42;;;;;;;17.70;6.35;;;6.60;99.90;;;;;;6277646;22;20034;-88
2022/11/17 02:16:29;;;;;;;12.00;5.90;;;6.50;99.90;;;;;;6257108;22;20110;-87
2022/11/17 02:19:22;;;;;;;13.32;7.93;;;6.30;99.90;;;;;;6279331;22;20027;-87
2022/11/17 02:22:37;;;;;;;16.65;7.30;;;6.20;99.90;;;;;;6256667;22;20035;-88
2022/11/17 02:25:46;;;;;;;10.93;6.63;;;6.10;99.90;;;;;;6278074;22;20037;-87
2022/11/17 02:29:05;;;;;;;11.75;7.38;;;6.00;99.90;;;;;;6255337;22;20024;-87
2022/11/17 02:32:17;;;;;;;12.45;6.90;;;5.80;99.90;;;;;;6275672;22;20023;-88
2022/11/17 02:35:34;;;;;;;12.77;7.65;;;5.80;99.90;;;;;;6256038;22;20095;-88
2022/11/17 02:38:29;;;;;;;11.98;7.22;;;5.60;99.90;;;;;;6276468;22;20023;-86
2022/11/17 02:41:31;;;;;;;14.82;7.15;;;5.70;99.90;;;;;;6278995;22;20024;-87
2022/11/17 02:44:35;;;;;;;11.95;7.60;;;5.70;99.90;;;;;;6254886;22;20320;-87
2022/11/17 02:47:27;;;;;;;10.48;6.03;;;5.90;99.90;;;;;;6279082;22;20289;-88
2022/11/17 02:50:15;;;;;;;9.43;7.13;;;5.90;99.90;;;;;;6279418;22;20094;-86
2022/11/17 02:53:03;;;;;;;11.48;6.97;;;6.00;99.90;;;;;;6259691;22;20023;-88
2022/11/17 02:55:54;;;;;;;10.57;6.63;;;6.10;99.90;;;;;;6255868;22;20092;-87
2022/11/17 02:58:45;;;;;;;5.45;4.82;;;6.20;99.90;;;;;;6255508;22;20036;-87
2022/11/17 03:01:40;;;;;;;7.45;4.10;;;6.60;99.90;;;;;;6257763;22;20470;-85
2022/11/17 03:05:08;;;;;;;7.93;4.13;;;6.90;99.90;;;;;;6276403;22;20034;-87
2022/11/17 03:08:07;;;;;;;5.13;3.53;;;7.20;99.90;;;;;;6279487;22;20019;-87
2022/11/17 03:10:57;;;;;;;12.27;3.88;;;7.20;99.90;;;;;;6279782;22;20335;-86
2022/11/17 03:13:55;;;;;;;7.95;3.75;;;7.20;99.90;;;;;;6279904;22;20031;-86
2022/11/17 03:17:00;;;;;;;6.38;3.75;;;7.20;99.90;;;;;;6279653;22;20030;-87
2022/11/17 03:20:11;;;;;;;6.03;3.72;;;7.20;99.90;;;;;;6278224;22;20024;-88
2022/11/17 03:23:17;;;;;;;4.82;3.72;;;7.20;99.90;;;;;;6281034;22;20430;-86
2022/11/17 03:26:08;;;;;;;7.45;4.18;;;7.10;99.90;;;;;;6281200;22;20113;-87
2022/11/17 03:28:57;;;;;;;6.80;4.15;;;7.10;99.90;;;;;;6256794;22;20030;-87
2022/11/17 03:31:47;;;;;;;10.50;4.28;;;7.10;99.90;;;;;;6280464;22;20102;-87
2022/11/17 03:34:55;;;;;;;6.70;3.75;;;7.10;99.90;;;;;;6280228;22;20395;-87
2022/11/17 03:37:53;;;;;;;7.00;4.55;;;7.10;99.90;;;;;;6266374;22;20103;-87
2022/11/17 03:40:45;;;;;;;6.82;4.60;;;7.20;99.90;;;;;;6297515;22;20027;-85
2022/11/17 03:43:32;;;;;;;11.00;4.60;;;7.30;99.90;;;;;;6292538;22;20085;-86
2022/11/17 03:46:24;;;;;;;7.22;3.85;;;7.50;99.90;;;;;;6273449;22;20027;-87
2022/11/17 03:49:23;;;;;;;9.98;4.05;;;7.60;99.90;;;;;;6291174;22;20075;-86
2022/11/17 03:52:10;;;;;;;6.75;4.13;;;7.60;99.90;;;;;;6290721;22;20055;-86
2022/11/17 03:55:01;;;;;;;5.70;3.78;;;7.60;99.90;;;;;;6288616;22;20117;-87
2022/11/17 03:58:04;;;;;;;8.32;3.60;;;7.70;99.90;;;;;;6289773;22;20019;-86
2022/11/17 04:00:53;;;;;;;8.27;4.45;;;7.70;99.90;;;;;;6293556;22;20076;-87
2022/11/17 04:03:40;;;;;;;5.50;3.92;;;7.70;99.90;;;;;;6251255;22;20077;-87
2022/11/17 04:06:27;;;;;;;6.85;4.30;;;7.70;99.90;;;;;;6292199;22;20024;-86
2022/11/17 04:09:14;;;;;;;6.85;4.50;;;7.60;99.90;;;;;;6273604;22;20054;-87
2022/11/17 04:18:22;;;;;;;12.88;5.75;;;7.50;99.90;;;;;;6274195;22;20028;-88
2022/11/17 04:21:09;;;;;;;5.90;4.82;;;7.40;99.90;;;;;;6278074;22;20008;-87
2022/11/17 04:24:01;;;;;;;7.75;5.07;;;7.40;99.90;;;;;;6303018;22;20043;-86
2022/11/17 04:29:54;;;;;;;10.00;6.13;;;7.30;99.90;;;;;;6304156;22;20019;-85
2022/11/17 04:32:41;;;;;;;8.80;5.43;;;7.30;99.90;;;;;;6304559;22;20047;-86
2022/11/17 04:35:29;;;;;;;10.10;5.78;;;7.20;99.90;;;;;;6281484;22;20038;-87
2022/11/17 04:38:21;;;;;;;9.13;6.15;;;7.30;99.90;;;;;;6303721;22;20042;-87
2022/11/17 04:44:17;;;;;;;10.13;6.10;;;7.20;99.90;;;;;;6296372;22;20039;-87
2022/11/17 04:47:05;;;;;;;9.80;7.70;;;7.20;99.90;;;;;;6286794;22;20430;-87
2022/11/17 04:49:55;;;;;;;13.75;9.32;;;7.20;99.90;;;;;;6265936;22;20027;-87
2022/11/17 04:52:42;;;;;;;10.05;7.85;;;7.20;99.90;;;;;;6287945;22;20446;-88
2022/11/17 04:55:33;;;;;;;12.00;8.52;;;7.20;99.90;;;;;;6288658;22;20071;-87
2022/11/17 04:58:20;;;;;;;17.63;9.40;;;7.20;99.90;;;;;;6289211;22;20043;-86
2022/11/17 05:01:17;;;;;;;17.75;8.32;;;7.20;99.90;;;;;;6257243;22;20034;-86
2022/11/17 05:04:12;;;;;;;12.45;7.82;;;7.10;99.90;;;;;;6258089;22;20028;-86
2022/11/17 05:07:00;;;;;;;11.30;8.55;;;7.00;99.90;;;;;;6256514;22;20024;-86
2022/11/17 05:09:47;;;;;;;15.65;9.10;;;7.00;99.90;;;;;;6261828;22;20046;-87
2022/11/17 05:18:50;;;;;;;12.90;8.82;;;6.90;99.90;;;;;;6248994;22;20055;-86
2022/11/17 05:21:39;;;;;;;14.77;9.48;;;6.90;99.90;;;;;;6256080;22;20103;-87
2022/11/17 05:24:30;;;;;;;16.55;10.70;;;7.00;99.90;;;;;;6278984;22;20028;-85
2022/11/17 05:27:19;;;;;;;16.85;9.30;;;7.00;99.90;;;;;;6256440;22;20023;-86
2022/11/17 05:30:07;;;;;;;15.77;8.95;;;7.10;99.90;;;;;;6276343;22;20516;-85
2022/11/17 05:32:54;;;;;;;9.77;7.40;;;7.20;99.90;;;;;;6276844;22;20099;-85
2022/11/17 05:35:41;;;;;;;10.40;5.88;;;7.40;99.90;;;;;;6256942;22;20108;-85
2022/11/17 05:38:29;;;;;;;7.60;4.05;;;7.50;99.90;;;;;;6277634;22;20543;-86
2022/11/17 05:41:19;;;;;;;6.72;3.67;;;7.70;99.90;;;;;;6256242;22;20370;-84
2022/11/17 05:44:07;;;;;;;4.47;2.70;;;7.90;99.90;;;;;;6276739;22;20098;-88
2022/11/17 05:46:54;;;;;;;5.07;2.70;;;8.10;99.90;;;;;;6277133;22;20023;-85
2022/11/17 05:49:41;;;;;;;4.78;2.40;;;8.20;99.90;;;;;;6256309;22;20102;-84
2022/11/17 05:52:28;;;;;;;2.97;2.58;;;8.30;99.90;;;;;;6233975;22;20062;-85
2022/11/17 05:55:15;;;;;;;3.08;2.13;;;8.40;99.90;;;;;;6253099;22;20682;-84
2022/11/17 05:58:10;;;;;;;4.25;2.08;;;8.40;99.90;;;;;;6271493;22;20027;-85
2022/11/17 06:00:59;;;;;;;4.53;2.10;;;8.30;99.90;;;;;;6277199;22;20059;-88
2022/11/17 06:03:51;;;;;;;2.97;2.25;;;8.30;99.90;;;;;;6256250;22;20054;-87
2022/11/17 06:06:38;;;;;;;3.28;1.98;;;8.30;99.90;;;;;;6259822;22;20024;-87
2022/11/17 06:09:28;;;;;;;4.20;2.40;;;8.30;99.90;;;;;;6255494;22;20123;-85
2022/11/17 06:12:15;;;;;;;2.47;1.63;;;8.40;99.90;;;;;;6255513;22;20107;-85
2022/11/17 06:15:03;;;;;;;5.30;1.80;;;8.40;99.90;;;;;;6276697;22;20094;-85
2022/11/17 06:17:55;;;;;;;1.75;1.52;;;8.50;99.90;;;;;;6276501;22;20093;-85
2022/11/17 06:20:50;;;;;;;5.00;2.17;;;8.60;99.90;;;;;;6276688;22;20051;-84
2022/11/17 06:23:38;;;;;;;3.03;1.63;;;8.60;99.90;;;;;;6254265;22;20028;-85
2022/11/17 06:26:25;;;;;;;2.70;1.40;;;8.60;99.90;;;;;;6255484;22;20572;-84
2022/11/17 06:29:14;;;;;;;2.45;1.88;;;8.60;1.00;;;;;;6277626;22;20023;-83
2022/11/17 06:32:02;;;;;;;2.70;1.30;;;8.60;1.00;;;;;;6257266;22;20037;-86
2022/11/17 06:34:50;;;;;;;2.97;1.67;;;8.60;99.90;;;;;;6280097;22;20019;-87
2022/11/17 06:37:44;;;;;;;5.72;1.88;;;8.50;99.90;;;;;;6259567;22;20028;-87
2022/11/17 06:40:32;;;;;;;2.65;1.58;;;8.50;99.90;;;;;;6273707;22;20047;-87
2022/11/17 06:43:19;;;;;;;6.50;1.60;;;8.50;1.00;;;;;;6276094;22;20094;-84
2022/11/17 06:46:08;;;;;;;3.83;1.75;;;8.50;99.90;;;;;;6276330;22;20055;-85
2022/11/17 06:48:58;;;;;;;3.28;1.70;;;8.60;1.00;;;;;;6279479;22;20020;-85
2022/11/17 06:51:45;;;;;;;5.72;3.28;;;8.50;1.00;;;;;;6280643;22;20078;-83
2022/11/17 06:54:32;;;;;;;2.58;1.30;;;8.40;1.00;;;;;;6278005;22;20134;-85
2022/11/17 06:57:19;;;;;;;6.18;1.90;;;8.60;99.90;;;;;;6257588;22;20027;-88
2022/11/17 07:00:08;;;;;;;3.58;1.70;;;8.70;1.00;;;;;;6277584;22;20031;-87
2022/11/17 07:03:03;;;;;;;4.72;1.65;;;8.80;99.90;;;;;;6257369;22;20028;-87
2022/11/17 07:05:50;;;;;;;4.63;1.75;;;8.80;1.00;;;;;;6257805;22;20427;-85
2022/11/17 07:08:38;;;;;;;2.72;1.48;;;8.90;99.90;;;;;;6260052;22;20024;-88
2022/11/17 07:11:26;;;;;;;3.28;1.38;;;9.00;99.90;;;;;;6278491;22;20035;-87
2022/11/17 07:14:13;;;;;;;2.20;1.48;;;8.90;99.90;;;;;;6257365;22;20030;-85
2022/11/17 07:17:02;;;;;;;2.88;1.55;;;8.90;8.40;;;;;;6278201;22;20043;-85
2022/11/17 07:19:49;;;;;;;6.55;1.73;;;9.00;1.00;;;;;;6278260;22;20023;-86
2022/11/17 07:22:37;;;;;;;2.50;1.30;;;9.00;99.90;;;;;;6257918;22;20039;-85
2022/11/17 07:25:27;;;;;;;3.50;1.50;;;9.00;99.90;;;;;;6277764;22;20024;-85
2022/11/17 07:28:14;;;;;;;3.83;1.60;;;9.10;49.90;;;;;;6277320;22;20032;-85
2022/11/17 07:31:04;;;;;;;5.22;1.60;;;9.10;1.00;;;;;;6256275;22;20554;-86
2022/11/17 07:33:52;;;;;;;5.07;1.63;;;9.10;1.00;;;;;;6279422;22;20027;-87
2022/11/17 07:36:40;;;;;;;2.88;1.30;;;9.20;99.90;;;;;;6257583;22;20016;-87
2022/11/17 07:39:27;;;;;;;6.13;1.35;;;9.20;99.90;;;;;;6277767;22;20046;-86
2022/11/17 07:42:15;;;;;;;4.88;1.45;;;9.40;99.90;;;;;;6280168;22;20016;-90
2022/11/17 07:45:04;;;;;;;6.03;1.58;;;9.50;1.00;;;;;;6277179;22;20128;-85
2022/11/17 07:47:57;;;;;;;5.53;1.50;;;9.50;1.00;;;;;;6257439;22;20024;-87
2022/11/17 07:50:44;;;;;;;5.63;1.30;;;9.60;99.90;;;;;;6278563;22;20020;-85
2022/11/17 07:53:33;;;;;;;7.07;1.60;;;9.60;99.90;;;;;;6278442;22;20047;-87
2022/11/17 07:56:21;;;;;;;3.30;1.10;;;9.60;99.90;;;;;;6255390;22;20019;-83
2022/11/17 07:59:08;;;;;;;5.13;0.98;;;9.70;99.90;;;;;;6277329;22;20312;-86
2022/11/17 08:01:55;;;;;;;5.63;1.42;;;9.80;41.90;;;;;;6276145;22;20358;-83
2022/11/17 08:04:43;;;;;;;2.60;1.05;;;9.80;1.00;;;;;;6275856;22;20030;-84
2022/11/17 08:07:30;;;;;;;2.47;0.93;;;9.90;1.00;;;;;;6260222;22;20019;-84
2022/11/17 08:10:18;;;;;;;3.90;1.20;;;9.90;1.00;;;;;;6280063;22;20023;-85
2022/11/17 08:13:06;;;;;;;4.88;1.83;;;9.90;1.00;;;;;;6278920;22;20051;-86
2022/11/17 08:15:59;;;;;;;5.18;1.60;;;9.90;1.00;;;;;;6280478;22;20035;-86
2022/11/17 08:18:47;;;;;;;3.20;1.00;;;9.90;1.00;;;;;;6256670;22;20047;-85
2022/11/17 08:21:39;;;;;;;3.15;1.38;;;10.00;1.00;;;;;;6277191;22;20066;-85
2022/11/17 08:24:27;;;;;;;2.22;0.90;;;10.00;1.00;;;;;;6256985;22;20023;-84
2022/11/17 08:27:14;;;;;;;2.58;1.20;;;10.10;1.00;;;;;;6282676;22;20023;-87
2022/11/17 08:30:06;;;;;;;3.80;1.00;;;10.10;1.00;;;;;;6276308;22;20073;-86
2022/11/17 08:32:54;;;;;;;3.60;0.82;;;10.10;99.90;;;;;;6278569;22;20024;-84
2022/11/17 08:35:44;;;;;;;3.45;1.00;;;10.10;99.90;;;;;;6278336;22;20024;-86
2022/11/17 08:38:34;;;;;;;6.55;1.30;;;10.10;99.90;;;;;;6278462;22;20280;-83
2022/11/17 08:41:24;;;;;;;4.60;1.05;;;10.20;99.90;;;;;;6277001;22;20122;-87
2022/11/17 08:44:14;;;;;;;3.72;1.25;;;10.30;99.90;;;;;;6277764;22;20087;-85
2022/11/17 08:47:01;;;;;;;2.45;0.95;;;10.30;99.90;;;;;;6257652;22;20027;-86
2022/11/17 08:49:49;;;;;;;3.35;1.23;;;10.30;99.90;;;;;;6257520;22;20016;-87
2022/11/17 08:52:37;;;;;;;2.60;1.00;;;10.30;99.90;;;;;;6278031;22;20300;-88
2022/11/17 08:55:25;;;;;;;1.75;0.70;;;10.20;99.90;;;;;;6257139;22;20051;-86
2022/11/17 08:58:12;;;;;;;2.63;1.00;;;10.20;99.90;;;;;;6258762;22;20031;-87
2022/11/17 09:01:00;;;;;;;1.75;0.60;;;10.20;99.90;;;;;;6257074;22;20024;-85
2022/11/17 09:03:52;;;;;;;2.10;0.73;;;10.20;99.90;;;;;;6279269;22;20032;-85
2022/11/17 09:06:39;;;;;;;2.00;0.85;;;10.30;99.90;;;;;;6237727;22;20112;-88
2022/11/17 09:09:30;;;;;;;4.25;1.23;;;10.30;99.90;;;;;;6277394;22;20024;-84
2022/11/17 09:12:17;;;;;;;2.97;0.88;;;10.40;98.20;;;;;;6256515;22;20418;-85
2022/11/17 09:15:08;;;;;;;1.90;0.73;;;10.40;28.90;;;;;;6276713;22;20104;-85
2022/11/17 09:17:55;;;;;;;2.78;0.90;;;10.40;1.00;;;;;;6278289;22;20038;-86
2022/11/17 09:20:43;;;;;;;3.40;0.80;;;10.40;1.00;;;;;;6277474;22;20031;-84
2022/11/17 09:23:32;;;;;;;2.60;0.77;;;10.40;1.00;;;;;;6275523;22;20031;-84
2022/11/17 09:26:20;;;;;;;1.92;0.88;;;10.50;1.00;;;;;;6256245;22;20027;-85
2022/11/17 09:29:08;;;;;;;3.22;0.80;;;10.50;1.00;;;;;;6276940;22;20023;-85
2022/11/17 09:31:55;;;;;;;2.58;0.90;;;10.50;1.00;;;;;;6277160;22;20102;-85
2022/11/17 09:34:43;;;;;;;2.00;0.98;;;10.60;1.00;;;;;;6275632;22;20390;-83
2022/11/17 09:37:33;;;;;;;4.32;0.80;;;10.80;1.00;;;;;;6279396;22;20028;-84
2022/11/17 09:40:20;;;;;;;2.88;1.08;;;10.70;1.00;;;;;;6256559;22;20304;-83
2022/11/17 09:43:36;;;;;;;4.63;0.90;;;10.60;1.00;;;;;;6257250;22;20027;-86
2022/11/17 09:47:05;;;;;;;4.05;0.90;;;10.60;1.00;;;;;;6277761;22;20058;-82
2022/11/17 09:50:01;;;;;;;2.33;0.75;;;10.60;99.90;;;;;;6227083;22;20196;-80
2022/11/17 09:53:07;;;;;;;3.50;1.23;;;10.60;99.90;;;;;;6277093;22;20099;-82
2022/11/17 09:56:01;;;;;;;3.80;1.00;;;10.70;99.90;;;;;;6278061;22;20028;-81
2022/11/17 09:59:03;;;;;;;6.75;1.10;;;10.70;99.90;;;;;;6277465;22;20386;-81
2022/11/17 10:01:50;;;;;;;4.03;1.23;;;10.80;99.90;;;;;;6273913;22;20024;-81
2022/11/17 10:04:37;;;;;;;3.85;1.02;;;10.90;99.90;;;;;;6275947;22;20098;-82
2022/11/17 10:07:25;;;;;;;1.73;0.85;;;10.90;99.90;;;;;;6276086;22;20073;-82
2022/11/17 10:10:20;;;;;;;4.15;1.10;;;11.10;99.90;;;;;;6254987;22;20031;-81
2022/11/17 10:13:26;;;;;;;7.88;1.45;;;11.50;99.90;;;;;;6277950;22;20027;-82
2022/11/17 10:16:16;;;;;;;3.85;1.10;;;12.00;99.90;;;;;;6277160;22;20028;-82
2022/11/17 10:19:15;;;;;;;4.28;1.33;;;12.50;1.80;;;;;;6275041;22;20023;-81
2022/11/17 10:22:02;;;;;;;6.43;1.45;;;12.10;1.00;;;;;;6276223;22;20032;-79
2022/11/17 10:24:57;;;;;;;4.55;1.38;;;12.10;1.00;;;;;;6277342;22;20078;-80
2022/11/17 10:27:52;;;;;;;5.03;1.23;;;11.50;1.00;;;;;;6277905;22;20051;-80
2022/11/17 10:31:10;;;;;;;5.22;1.20;;;11.40;1.00;;;;;;6255314;22;20596;-81
2022/11/17 10:33:57;;;;;;;6.13;1.60;;;11.70;1.00;;;;;;6276923;22;20098;-81
2022/11/17 10:36:47;;;;;;;6.55;1.50;;;11.30;1.00;;;;;;6276823;22;20024;-81
2022/11/17 10:39:40;;;;;;;4.72;1.50;;;11.00;1.00;;;;;;6276311;22;20031;-80
2022/11/17 10:42:27;;;;;;;5.82;1.40;;;11.40;1.00;;;;;;6279262;22;20027;-81
2022/11/17 10:45:19;;;;;;;10.55;2.33;;;12.10;1.00;;;;;;6278833;22;20038;-82
2022/11/17 10:48:23;;;;;;;4.50;1.35;;;12.90;1.00;;;;;;6278125;22;20484;-82
2022/11/17 10:51:18;;;;;;;5.40;1.40;;;13.60;1.00;;;;;;6278739;22;20042;-83
2022/11/17 10:54:14;;;;;;;9.38;1.52;;;13.70;99.90;;;;;;6279640;22;20123;-83
2022/11/17 10:57:07;;;;;;;5.00;1.13;;;13.70;99.90;;;;;;6282645;22;20019;-83
2022/11/17 10:59:56;;;;;;;11.05;1.50;;;14.00;99.90;;;;;;6279037;22;20024;-81
2022/11/17 11:02:47;;;;;;;6.18;1.20;;;14.40;99.90;;;;;;6281576;22;20054;-85
2022/11/17 11:05:34;;;;;;;6.72;1.33;;;14.50;99.90;;;;;;6278237;22;20028;-81
2022/11/17 11:08:24;;;;;;;7.38;1.30;;;14.60;99.90;;;;;;6276718;22;20024;-82
2022/11/17 11:11:43;;;;;;;10.05;2.35;;;14.30;99.90;;;;;;6274577;22;20041;-82
2022/11/17 11:14:39;;;;;;;7.20;1.90;;;14.50;99.90;;;;;;6276016;22;20027;-82
2022/11/17 11:17:28;;;;;;;6.45;1.52;;;14.90;99.90;;;;;;6277369;22;20020;-83
2022/11/17 11:20:20;;;;;;;9.82;1.70;;;15.60;99.90;;;;;;6253566;22;20028;-84
2022/11/17 11:23:35;;;;;;;9.23;1.83;;;15.90;99.90;;;;;;6276145;22;20115;-82
2022/11/17 11:26:28;;;;;;;11.35;2.03;;;15.60;99.90;;;;;;6256289;22;20024;-82
2022/11/17 11:29:25;;;;;;;12.48;1.60;;;14.50;99.90;;;;;;6275531;22;20094;-82
2022/11/17 11:32:41;;;;;;;8.88;1.95;;;13.20;99.90;;;;;;6276847;22;20027;-82
2022/11/17 11:35:34;;;;;;;8.73;2.45;;;12.50;99.90;;;;;;6277956;22;20081;-84
2022/11/17 11:38:47;;;;;;;10.60;2.25;;;12.30;99.90;;;;;;6279305;22;20023;-83
2022/11/17 11:41:55;;;;;;;6.27;1.83;;;12.20;99.90;;;;;;6278605;22;20024;-86
2022/11/17 11:45:03;;;;;;;9.30;1.85;;;11.90;99.90;;;;;;6278032;22;20032;-85
2022/11/17 11:47:56;;;;;;;11.40;2.40;;;11.80;99.90;;;;;;6277396;22;21962;-84
2022/11/17 11:50:50;;;;;;;7.45;2.00;;;12.40;1.00;;;;;;6250971;22;20030;-84
2022/11/17 11:53:49;;;;;;;10.75;2.28;;;12.60;99.90;;;;;;6277588;22;20024;-85
2022/11/17 11:56:44;;;;;;;7.25;2.42;;;13.10;99.90;;;;;;6277881;22;20024;-84
2022/11/17 11:59:46;;;;;;;11.60;2.35;;;13.50;99.90;;;;;;6257540;22;20050;-86
2022/11/17 12:02:40;;;;;;;10.30;2.05;;;13.70;99.90;;;;;;6278444;22;20023;-85
2022/11/17 12:05:34;;;;;;;9.65;1.98;;;13.50;99.90;;;;;;6277634;22;20048;-84
2022/11/17 12:08:37;;;;;;;8.13;1.52;;;13.20;99.90;;;;;;6255591;22;20023;-84
2022/11/17 12:14:31;;;;;;;6.85;1.92;;;14.90;99.90;;;;;;6278223;22;19969;-84
2022/11/17 12:17:23;;;;;;;8.70;1.75;;;15.40;99.90;;;;;;6277071;22;20058;-84
2022/11/17 12:20:45;;;;;;;8.05;1.92;;;15.40;99.90;;;;;;6274969;22;20111;-85
2022/11/17 12:24:02;;;;;;;10.55;2.67;;;15.30;99.90;;;;;;6269812;22;20031;-81
2022/11/17 12:26:49;;;;;;;6.50;1.85;;;14.90;99.90;;;;;;6276953;22;20023;-84
2022/11/17 12:29:46;;;;;;;9.10;2.28;;;14.00;99.90;;;;;;6274702;22;20411;-84
2022/11/17 12:32:45;;;;;;;12.77;2.45;;;13.20;99.90;;;;;;6256186;22;20054;-83
2022/11/17 12:35:40;;;;;;;11.95;2.08;;;13.30;99.90;;;;;;6258020;22;20039;-84
2022/11/17 12:38:28;;;;;;;13.68;2.83;;;13.40;99.90;;;;;;6276520;22;20028;-83
2022/11/17 12:41:47;;;;;;;12.48;2.80;;;14.20;99.90;;;;;;6276696;22;20355;-81
2022/11/17 12:44:43;;;;;;;10.20;2.25;;;14.80;99.90;;;;;;6275312;22;20035;-83
2022/11/17 12:47:34;;;;;;;10.38;2.15;;;13.90;99.90;;;;;;6253856;22;20090;-82
2022/11/17 12:50:33;;;;;;;9.40;2.00;;;14.50;99.90;;;;;;6276636;22;20047;-82
2022/11/17 12:54:11;;;;;;;8.52;2.33;;;14.20;99.90;;;;;;6275212;22;20031;-83
2022/11/17 12:57:28;;;;;;;10.77;2.45;;;14.30;99.90;;;;;;6270273;22;20016;-83
2022/11/17 13:00:26;;;;;;;7.18;1.90;;;14.70;99.90;;;;;;6253698;22;20111;-83
2022/11/17 13:03:27;;;;;;;16.50;2.10;;;13.80;99.90;;;;;;6274916;22;20111;-83
2022/11/17 13:06:19;;;;;;;7.47;1.63;;;13.00;99.90;;;;;;6276373;22;20024;-82
2022/11/17 13:09:25;;;;;;;6.53;2.00;;;13.60;99.90;;;;;;6276952;22;20426;-86
2022/11/17 13:12:20;;;;;;;10.18;2.72;;;14.60;99.90;;;;;;6234288;22;20126;-83
2022/11/17 13:15:22;;;;;;;8.35;2.25;;;14.60;99.90;;;;;;6255963;22;20035;-81
2022/11/17 13:18:33;;;;;;;10.80;2.35;;;14.60;99.90;;;;;;6256009;22;20159;-82
2022/11/17 13:21:23;;;;;;;11.73;1.92;;;14.80;99.90;;;;;;6273160;22;20024;-81
2022/11/17 13:24:10;;;;;;;11.38;2.13;;;14.80;99.90;;;;;;6276401;22;20036;-82
2022/11/17 13:27:00;;;;;;;11.00;2.55;;;14.50;99.90;;;;;;6276041;22;20034;-84
2022/11/17 13:29:52;;;;;;;14.35;2.60;;;14.10;99.90;;;;;;6277302;22;20020;-84
2022/11/17 13:32:42;;;;;;;11.38;2.00;;;13.40;99.90;;;;;;6276048;22;20024;-82
2022/11/17 13:35:34;;;;;;;12.55;2.53;;;12.80;99.90;;;;;;6254877;22;20024;-83
2022/11/17 13:38:23;;;;;;;10.25;2.22;;;12.80;99.90;;;;;;6252589;22;20406;-82
2022/11/17 13:41:11;;;;;;;12.93;2.30;;;12.80;99.90;;;;;;6275175;22;20031;-82
2022/11/17 13:44:00;;;;;;;11.10;2.78;;;13.00;99.90;;;;;;6275373;22;20049;-82
2022/11/17 13:46:47;;;;;;;13.93;2.80;;;13.60;99.90;;;;;;6276887;22;20035;-82
2022/11/17 13:49:36;;;;;;;15.10;2.88;;;14.30;99.90;;;;;;6274949;22;20024;-82
2022/11/17 13:52:35;;;;;;;14.23;2.88;;;14.60;99.90;;;;;;6274449;22;20023;-83
2022/11/17 13:55:33;;;;;;;14.38;2.92;;;14.60;99.90;;;;;;6256132;22;20103;-82
2022/11/17 13:58:39;;;;;;;11.70;3.03;;;13.90;99.90;;;;;;6251204;22;20399;-80
2022/11/17 14:01:28;;;;;;;14.05;3.35;;;13.60;99.90;;;;;;6273919;22;20042;-81
2022/11/17 14:04:22;;;;;;;17.60;3.25;;;13.30;99.90;;;;;;6277683;22;20028;-82
2022/11/17 14:07:15;;;;;;;18.63;3.97;;;13.20;99.90;;;;;;6277167;22;20024;-83
2022/11/17 14:10:19;;;;;;;13.57;2.75;;;12.70;99.90;;;;;;6276030;22;20027;-82
2022/11/17 14:13:20;;;;;;;16.77;3.70;;;12.30;99.90;;;;;;6277572;22;20020;-84
2022/11/17 14:16:26;;;;;;;17.08;3.08;;;12.10;99.90;;;;;;6256127;22;20023;-84
2022/11/17 14:19:14;;;;;;;20.25;2.65;;;12.00;99.90;;;;;;6254779;22;20130;-84
2022/11/17 14:22:07;;;;;;;14.02;3.03;;;11.90;99.90;;;;;;6277256;22;20027;-84
2022/11/17 14:24:56;;;;;;;13.57;2.65;;;11.90;99.90;;;;;;6255406;22;20063;-83
2022/11/17 14:27:44;;;;;;;11.70;2.35;;;11.80;99.90;;;;;;6276433;22;20095;-83
2022/11/17 14:30:38;;;;;;;18.65;3.30;;;11.80;99.90;;;;;;6276786;22;20051;-86
2022/11/17 14:33:31;;;;;;;18.85;2.70;;;11.70;99.90;;;;;;6255604;22;20314;-85
2022/11/17 14:36:19;;;;;;;17.65;3.22;;;11.70;99.90;;;;;;6277443;22;20023;-86
2022/11/17 14:39:13;;;;;;;23.30;3.05;;;11.70;99.90;;;;;;6277359;22;20027;-85
2022/11/17 14:42:01;;;;;;;22.20;3.05;;;11.70;99.90;;;;;;6277226;22;20043;-85
2022/11/17 14:44:48;;;;;;;13.38;2.95;;;11.70;99.90;;;;;;6275087;22;20023;-84
2022/11/17 14:47:36;;;;;;;10.95;2.85;;;11.60;99.90;;;;;;6256049;22;20307;-84
2022/11/17 14:50:28;;;;;;;17.00;3.00;;;11.50;99.90;;;;;;6255023;22;20031;-86
2022/11/17 14:53:16;;;;;;;18.55;3.55;;;11.50;99.90;;;;;;6276921;22;20034;-84
2022/11/17 14:56:07;;;;;;;14.63;2.55;;;11.40;99.90;;;;;;6274546;22;20028;-86
2022/11/17 14:58:58;;;;;;;8.63;1.90;;;11.40;99.90;;;;;;6277079;22;20315;-85
2022/11/17 15:01:47;;;;;;;13.15;3.25;;;11.40;99.90;;;;;;6276884;22;20032;-83
2022/11/17 15:04:35;;;;;;;11.93;2.55;;;11.40;99.90;;;;;;6275845;22;20114;-84
2022/11/17 15:07:37;;;;;;;8.00;2.50;;;11.40;99.90;;;;;;6277529;22;20039;-85
2022/11/17 15:10:30;;;;;;;11.93;2.75;;;11.30;99.90;;;;;;6256436;22;20042;-85
2022/11/17 15:13:19;;;;;;;11.68;2.42;;;11.20;99.90;;;;;;6278866;22;20024;-84
2022/11/17 15:16:09;;;;;;;13.45;3.70;;;11.20;99.90;;;;;;6276756;22;20533;-84
2022/11/17 15:18:57;;;;;;;13.20;2.83;;;11.20;99.90;;;;;;6257721;22;20051;-84
2022/11/17 15:21:45;;;;;;;11.90;2.22;;;11.20;99.90;;;;;;6254756;22;20106;-83
2022/11/17 15:24:32;;;;;;;10.80;2.30;;;11.20;99.90;;;;;;6279394;22;20032;-83
2022/11/17 15:27:20;;;;;;;12.32;2.55;;;11.20;99.90;;;;;;6280892;22;20031;-87
2022/11/17 15:30:09;;;;;;;12.15;2.97;;;11.10;99.90;;;;;;6277328;22;20015;-87
2022/11/17 15:33:00;;;;;;;11.15;2.10;;;11.00;99.90;;;;;;6279291;22;20081;-87